createdAt,value
2018-08-22T00:01:49.518Z,19.70
2018-08-22T00:04:17.943Z,19.70
2018-08-22T00:06:46.387Z,19.80
2018-08-22T00:09:14.844Z,19.80
2018-08-22T00:11:43.212Z,19.70
2018-08-22T00:14:11.646Z,19.70
2018-08-22T00:16:40.041Z,19.70
2018-08-22T00:19:08.616Z,19.60
2018-08-22T00:21:43.574Z,19.70
2018-08-22T00:24:12.000Z,19.70
2018-08-22T00:26:40.451Z,19.70
2018-08-22T00:29:08.833Z,19.60
2018-08-22T00:31:37.334Z,19.50
2018-08-22T00:34:05.758Z,19.50
2018-08-22T00:36:34.235Z,19.50
2018-08-22T00:39:02.816Z,19.50
2018-08-22T00:41:31.298Z,19.50
2018-08-22T00:43:59.735Z,19.50
2018-08-22T00:46:28.149Z,19.50
2018-08-22T00:48:56.645Z,19.40
2018-08-22T00:51:25.063Z,19.30
2018-08-22T00:53:53.635Z,19.30
2018-08-22T00:56:22.068Z,19.40
2018-08-22T00:58:50.471Z,19.40
2018-08-22T01:01:18.990Z,19.40
2018-08-22T01:03:47.740Z,19.40
2018-08-22T01:06:16.137Z,19.40
2018-08-22T01:08:44.505Z,19.40
2018-08-22T01:11:13.000Z,19.30
2018-08-22T01:13:41.426Z,19.30
2018-08-22T01:16:09.866Z,19.20
2018-08-22T01:18:38.339Z,19.20
2018-08-22T01:21:08.008Z,19.30
2018-08-22T01:23:36.345Z,19.20
2018-08-22T01:26:04.812Z,19.20
2018-08-22T01:28:33.218Z,19.10
2018-08-22T01:31:01.643Z,19.10
2018-08-22T01:33:30.118Z,19.10
2018-08-22T01:35:58.548Z,19.10
2018-08-22T01:38:27.100Z,19.10
2018-08-22T01:40:55.509Z,19.10
2018-08-22T01:43:23.957Z,19.00
2018-08-22T01:45:52.381Z,19.00
2018-08-22T01:48:20.917Z,19.00
2018-08-22T01:50:49.375Z,19.00
2018-08-22T01:53:17.937Z,19.00
2018-08-22T01:55:46.571Z,19.00
2018-08-22T01:58:14.985Z,19.00
2018-08-22T02:00:43.390Z,19.10
2018-08-22T02:03:11.815Z,19.00
2018-08-22T02:05:40.243Z,19.00
2018-08-22T02:08:08.612Z,19.00
2018-08-22T02:10:37.071Z,19.00
2018-08-22T02:13:05.478Z,18.90
2018-08-22T02:15:33.887Z,18.80
2018-08-22T02:18:02.550Z,18.70
2018-08-22T02:20:30.943Z,18.80
2018-08-22T02:22:59.388Z,18.90
2018-08-22T02:25:27.825Z,18.80
2018-08-22T02:27:56.316Z,18.80
2018-08-22T02:30:24.783Z,18.70
2018-08-22T02:32:53.241Z,18.60
2018-08-22T02:35:21.665Z,18.70
2018-08-22T02:37:50.134Z,18.80
2018-08-22T02:40:18.569Z,18.80
2018-08-22T02:42:47.103Z,18.70
2018-08-22T02:45:15.612Z,18.70
2018-08-22T02:47:44.108Z,18.70
2018-08-22T02:50:12.533Z,18.80
2018-08-22T02:52:40.968Z,18.70
2018-08-22T02:55:09.353Z,18.80
2018-08-22T02:57:37.770Z,18.80
2018-08-22T03:00:06.174Z,18.80
2018-08-22T03:02:34.582Z,18.70
2018-08-22T03:05:03.045Z,18.70
2018-08-22T03:07:31.401Z,18.60
2018-08-22T03:09:59.904Z,18.50
2018-08-22T03:12:28.283Z,18.60
2018-08-22T03:14:56.687Z,18.60
2018-08-22T03:17:25.237Z,18.60
2018-08-22T03:19:53.671Z,18.60
2018-08-22T03:22:22.190Z,18.60
2018-08-22T03:24:50.573Z,18.50
2018-08-22T03:27:19.057Z,18.50
2018-08-22T03:29:47.446Z,18.60
2018-08-22T03:32:15.868Z,18.50
2018-08-22T03:34:44.403Z,18.50
2018-08-22T03:37:12.887Z,18.60
2018-08-22T03:39:41.278Z,18.50
2018-08-22T03:42:09.746Z,18.50
2018-08-22T03:44:38.235Z,18.30
2018-08-22T03:47:06.667Z,18.30
2018-08-22T03:49:35.293Z,18.30
2018-08-22T03:52:03.882Z,18.40
2018-08-22T03:54:32.461Z,18.40
2018-08-22T03:57:00.975Z,18.30
2018-08-22T03:59:29.418Z,18.40
2018-08-22T04:01:58.836Z,18.40
2018-08-22T04:04:27.510Z,18.40
2018-08-22T04:06:56.006Z,18.30
2018-08-22T04:09:24.679Z,18.30
2018-08-22T04:11:53.271Z,18.40
2018-08-22T04:14:21.704Z,18.50
2018-08-22T04:16:50.111Z,18.30
2018-08-22T04:19:18.710Z,18.30
2018-08-22T04:21:47.110Z,18.30
2018-08-22T04:24:15.697Z,18.40
2018-08-22T04:26:44.155Z,18.50
2018-08-22T04:29:12.538Z,18.60
2018-08-22T04:31:40.926Z,18.60
2018-08-22T04:34:10.143Z,18.50
2018-08-22T04:36:38.578Z,18.50
2018-08-22T04:39:08.122Z,18.50
2018-08-22T04:41:36.498Z,18.60
2018-08-22T04:44:04.973Z,18.60
2018-08-22T04:46:33.835Z,18.70
2018-08-22T04:49:02.346Z,18.70
2018-08-22T04:51:31.392Z,18.80
2018-08-22T04:54:00.217Z,18.80
2018-08-22T04:56:28.715Z,19.00
2018-08-22T04:58:57.232Z,19.00
2018-08-22T05:01:25.657Z,19.00
2018-08-22T05:03:54.127Z,18.90
2018-08-22T05:06:22.648Z,19.10
2018-08-22T05:08:50.998Z,19.20
2018-08-22T05:11:19.549Z,19.20
2018-08-22T05:13:48.003Z,19.30
2018-08-22T05:16:16.474Z,19.30
2018-08-22T05:18:44.916Z,19.30
2018-08-22T05:21:13.339Z,19.40
2018-08-22T05:23:41.840Z,19.30
2018-08-22T05:26:11.022Z,19.20
2018-08-22T05:28:39.742Z,19.30
2018-08-22T05:31:08.239Z,19.20
2018-08-22T05:33:36.658Z,19.20
2018-08-22T05:36:05.090Z,19.20
2018-08-22T05:38:33.522Z,19.20
2018-08-22T05:41:02.002Z,19.30
2018-08-22T05:43:30.694Z,19.20
2018-08-22T05:45:59.150Z,19.20
2018-08-22T05:48:27.617Z,19.30
2018-08-22T05:50:56.144Z,19.40
2018-08-22T05:53:24.634Z,19.30
2018-08-22T05:55:53.173Z,19.40
2018-08-22T05:58:21.567Z,19.50
2018-08-22T06:00:50.087Z,19.60
2018-08-22T06:03:18.526Z,19.60
2018-08-22T06:05:46.945Z,19.60
2018-08-22T06:08:15.370Z,19.50
2018-08-22T06:10:43.840Z,19.60
2018-08-22T06:13:12.737Z,19.60
2018-08-22T06:15:41.181Z,19.70
2018-08-22T06:18:09.605Z,19.70
2018-08-22T06:20:38.041Z,19.70
2018-08-22T06:23:06.787Z,19.80
2018-08-22T06:25:35.216Z,19.90
2018-08-22T06:28:03.649Z,19.70
2018-08-22T06:30:32.080Z,19.60
2018-08-22T06:33:00.524Z,19.60
2018-08-22T06:35:29.059Z,19.90
2018-08-22T06:37:57.523Z,20.00
2018-08-22T06:40:26.084Z,20.00
2018-08-22T06:42:54.819Z,20.00
2018-08-22T06:45:23.285Z,20.20
2018-08-22T06:47:51.763Z,20.20
2018-08-22T06:50:20.271Z,20.30
2018-08-22T06:52:48.653Z,20.30
2018-08-22T06:55:17.099Z,20.40
2018-08-22T06:57:45.622Z,20.60
2018-08-22T07:00:14.079Z,20.80
2018-08-22T07:02:42.567Z,20.80
2018-08-22T07:05:11.053Z,20.90
2018-08-22T07:07:39.475Z,21.00
2018-08-22T07:10:07.939Z,21.20
2018-08-22T07:12:36.349Z,21.40
2018-08-22T07:15:05.560Z,21.70
2018-08-22T07:17:33.979Z,21.80
2018-08-22T07:20:02.375Z,21.70
2018-08-22T07:22:30.846Z,22.00
2018-08-22T07:24:59.204Z,22.10
2018-08-22T07:27:27.635Z,22.30
2018-08-22T07:29:56.099Z,22.60
2018-08-22T07:32:24.523Z,22.50
2018-08-22T07:34:52.977Z,22.50
2018-08-22T07:37:21.544Z,22.60
2018-08-22T07:39:50.029Z,22.80
2018-08-22T07:42:18.485Z,23.00
2018-08-22T07:44:46.951Z,23.10
2018-08-22T07:47:15.479Z,23.20
2018-08-22T07:49:43.915Z,23.20
2018-08-22T07:52:12.332Z,23.30
2018-08-22T07:54:44.668Z,23.50
2018-08-22T07:57:14.508Z,23.60
2018-08-22T07:59:42.869Z,23.60
2018-08-22T08:02:11.349Z,23.60
2018-08-22T08:04:39.797Z,23.60
2018-08-22T08:07:08.236Z,23.70
2018-08-22T08:09:36.641Z,23.60
2018-08-22T08:12:05.155Z,23.70
2018-08-22T08:14:33.577Z,23.70
2018-08-22T08:17:02.005Z,23.80
2018-08-22T08:19:30.463Z,24.00
2018-08-22T08:21:58.881Z,24.10
2018-08-22T08:24:27.349Z,24.20
2018-08-22T08:26:55.769Z,24.20
2018-08-22T08:29:24.214Z,24.20
2018-08-22T08:31:52.689Z,24.10
2018-08-22T08:34:21.261Z,24.30
2018-08-22T08:36:49.919Z,24.30
2018-08-22T08:39:18.314Z,24.40
2018-08-22T08:41:47.089Z,24.30
2018-08-22T08:44:15.421Z,24.30
2018-08-22T08:46:43.866Z,24.50
2018-08-22T08:49:13.003Z,24.40
2018-08-22T08:51:53.815Z,24.50
2018-08-22T08:54:22.899Z,24.60
2018-08-22T08:56:51.369Z,24.50
2018-08-22T08:59:19.825Z,24.60
2018-08-22T09:01:48.235Z,24.50
2018-08-22T09:04:16.658Z,24.60
2018-08-22T09:06:45.081Z,24.50
2018-08-22T09:09:13.564Z,24.50
2018-08-22T09:11:47.298Z,24.60
2018-08-22T09:14:15.736Z,24.50
2018-08-22T09:16:44.226Z,24.60
2018-08-22T09:19:12.693Z,24.50
2018-08-22T09:21:41.095Z,24.60
2018-08-22T09:24:09.590Z,24.80
2018-08-22T09:26:38.098Z,24.70
2018-08-22T09:29:06.525Z,24.70
2018-08-22T09:31:34.934Z,24.80
2018-08-22T09:34:03.334Z,24.80
2018-08-22T09:36:32.128Z,24.80
2018-08-22T09:39:00.631Z,24.70
2018-08-22T09:41:29.043Z,24.80
2018-08-22T09:43:57.554Z,24.90
2018-08-22T09:46:26.023Z,25.00
2018-08-22T09:48:54.553Z,25.00
2018-08-22T09:51:22.927Z,25.00
2018-08-22T09:53:51.390Z,25.00
2018-08-22T09:56:19.831Z,25.20
2018-08-22T09:58:48.297Z,25.10
2018-08-22T10:01:23.361Z,25.10
2018-08-22T10:03:55.440Z,25.00
2018-08-22T10:06:30.811Z,25.10
2018-08-22T10:09:01.049Z,25.40
2018-08-22T10:11:29.512Z,25.60
2018-08-22T10:13:58.533Z,25.60
2018-08-22T10:16:28.024Z,25.60
2018-08-22T10:18:56.893Z,25.50
2018-08-22T10:21:26.390Z,25.60
2018-08-22T10:23:54.890Z,25.50
2018-08-22T10:26:23.768Z,25.50
2018-08-22T10:28:52.894Z,25.60
2018-08-22T10:31:21.504Z,25.80
2018-08-22T10:33:49.963Z,25.80
2018-08-22T10:36:18.371Z,25.80
2018-08-22T10:38:46.963Z,25.80
2018-08-22T10:41:15.387Z,25.70
2018-08-22T10:43:44.059Z,25.70
2018-08-22T10:46:12.468Z,25.70
2018-08-22T10:48:40.915Z,25.80
2018-08-22T10:51:09.447Z,25.80
2018-08-22T10:53:38.118Z,25.80
2018-08-22T10:56:06.701Z,25.90
2018-08-22T10:58:35.072Z,26.00
2018-08-22T11:01:03.736Z,26.10
2018-08-22T11:03:32.193Z,26.10
2018-08-22T11:06:00.914Z,26.20
2018-08-22T11:08:29.381Z,26.20
2018-08-22T11:10:58.179Z,26.30
2018-08-22T11:13:26.660Z,26.30
2018-08-22T11:15:55.352Z,26.30
2018-08-22T11:18:24.038Z,26.40
2018-08-22T11:20:52.818Z,26.30
2018-08-22T11:23:33.548Z,26.40
2018-08-22T11:26:14.273Z,26.50
2018-08-22T11:28:54.141Z,26.50
2018-08-22T11:31:34.139Z,26.50
2018-08-22T11:34:13.890Z,26.70
2018-08-22T11:36:44.008Z,26.70
2018-08-22T11:39:12.609Z,26.60
2018-08-22T11:41:40.970Z,26.50
2018-08-22T11:44:09.484Z,26.40
2018-08-22T11:46:37.927Z,26.40
2018-08-22T11:49:06.418Z,26.50
2018-08-22T11:51:34.855Z,26.50
2018-08-22T11:54:03.275Z,26.40
2018-08-22T11:56:31.691Z,26.50
2018-08-22T11:59:00.170Z,26.50
2018-08-22T12:01:28.573Z,26.50
2018-08-22T12:03:57.232Z,26.70
2018-08-22T12:06:26.253Z,26.80
2018-08-22T12:08:54.669Z,27.00
2018-08-22T12:11:23.099Z,27.10
2018-08-22T12:13:51.788Z,27.20
2018-08-22T12:16:20.227Z,27.20
2018-08-22T12:18:48.664Z,27.20
2018-08-22T12:21:17.143Z,27.30
2018-08-22T12:23:45.588Z,27.20
2018-08-22T12:26:14.109Z,27.30
2018-08-22T12:28:42.499Z,27.20
2018-08-22T12:31:11.027Z,27.20
2018-08-22T12:33:39.471Z,27.20
2018-08-22T12:36:07.935Z,27.20
2018-08-22T12:38:36.345Z,27.40
2018-08-22T12:41:04.782Z,27.40
2018-08-22T12:43:33.223Z,27.40
2018-08-22T12:46:01.689Z,27.30
2018-08-22T12:48:30.059Z,27.20
2018-08-22T12:50:58.493Z,27.30
2018-08-22T12:53:27.329Z,27.20
2018-08-22T12:55:55.763Z,27.20
2018-08-22T12:58:24.351Z,27.20
2018-08-22T13:00:52.745Z,27.20
2018-08-22T13:03:21.233Z,27.20
2018-08-22T13:05:49.615Z,27.30
2018-08-22T13:08:18.050Z,27.30
2018-08-22T13:10:46.427Z,27.40
2018-08-22T13:13:14.875Z,27.50
2018-08-22T13:15:43.272Z,27.50
2018-08-22T13:18:11.621Z,27.50
2018-08-22T13:20:40.135Z,27.40
2018-08-22T13:23:08.583Z,27.30
2018-08-22T13:25:36.987Z,27.30
2018-08-22T13:28:05.618Z,27.30
2018-08-22T13:30:34.111Z,27.30
2018-08-22T13:33:02.590Z,27.30
2018-08-22T13:35:31.040Z,27.40
2018-08-22T13:37:59.507Z,27.70
2018-08-22T13:40:27.942Z,27.80
2018-08-22T13:42:56.448Z,28.00
2018-08-22T13:45:24.899Z,28.10
2018-08-22T13:47:53.300Z,28.00
2018-08-22T13:50:22.149Z,28.00
2018-08-22T13:52:50.659Z,27.90
2018-08-22T13:55:19.068Z,27.90
2018-08-22T13:57:47.532Z,27.80
2018-08-22T14:00:16.172Z,27.80
2018-08-22T14:02:44.644Z,27.80
2018-08-22T14:05:13.073Z,27.70
2018-08-22T14:07:41.556Z,27.80
2018-08-22T14:10:10.193Z,27.70
2018-08-22T14:12:38.635Z,27.70
2018-08-22T14:15:07.148Z,27.70
2018-08-22T14:17:35.559Z,27.80
2018-08-22T14:20:04.046Z,27.80
2018-08-22T14:22:32.502Z,28.00
2018-08-22T14:25:00.888Z,28.10
2018-08-22T14:27:29.374Z,28.00
2018-08-22T14:29:57.713Z,27.90
2018-08-22T14:32:26.151Z,27.90
2018-08-22T14:34:54.656Z,27.80
2018-08-22T14:37:23.120Z,27.80
2018-08-22T14:39:51.570Z,27.80
2018-08-22T14:42:20.124Z,27.60
2018-08-22T14:44:48.606Z,27.50
2018-08-22T14:47:17.027Z,27.50
2018-08-22T14:49:45.530Z,27.70
2018-08-22T14:52:14.016Z,27.70
2018-08-22T14:54:42.450Z,27.70
2018-08-22T14:57:10.918Z,27.70
2018-08-22T14:59:39.383Z,27.60
2018-08-22T15:02:08.149Z,27.60
2018-08-22T15:04:38.365Z,27.60
2018-08-22T15:07:06.825Z,27.60
2018-08-22T15:09:35.657Z,27.50
2018-08-22T15:12:04.282Z,27.50
2018-08-22T15:14:32.799Z,27.50
2018-08-22T15:17:01.283Z,27.50
2018-08-22T15:19:29.839Z,27.50
2018-08-22T15:21:58.249Z,27.60
2018-08-22T15:24:26.708Z,27.50
2018-08-22T15:26:55.233Z,27.50
2018-08-22T15:29:23.679Z,27.60
2018-08-22T15:31:52.091Z,27.60
2018-08-22T15:34:20.614Z,27.70
2018-08-22T15:36:48.995Z,27.80
2018-08-22T15:39:17.478Z,27.80
2018-08-22T15:41:45.946Z,27.70
2018-08-22T15:44:14.469Z,27.60
2018-08-22T15:46:43.024Z,27.50
2018-08-22T15:49:11.635Z,27.60
2018-08-22T15:51:40.174Z,27.50
2018-08-22T15:54:11.324Z,27.50
2018-08-22T15:56:41.135Z,27.50
2018-08-22T15:59:10.557Z,27.70
2018-08-22T16:01:39.466Z,27.70
2018-08-22T16:04:08.409Z,27.70
2018-08-22T16:06:36.852Z,27.70
2018-08-22T16:09:08.364Z,27.60
2018-08-22T16:11:36.844Z,27.50
2018-08-22T16:14:05.480Z,27.50
2018-08-22T16:16:33.920Z,27.50
2018-08-22T16:19:03.846Z,27.40
2018-08-22T16:21:32.624Z,27.40
2018-08-22T16:24:01.148Z,27.40
2018-08-22T16:26:29.563Z,27.30
2018-08-22T16:28:59.414Z,27.40
2018-08-22T16:31:33.207Z,27.30
2018-08-22T16:34:01.668Z,27.30
2018-08-22T16:36:31.116Z,27.30
2018-08-22T16:39:00.512Z,27.30
2018-08-22T16:41:29.008Z,27.40
2018-08-22T16:43:57.476Z,27.30
2018-08-22T16:46:26.043Z,27.30
2018-08-22T16:48:55.605Z,27.30
2018-08-22T16:51:24.560Z,27.30
2018-08-22T16:54:01.771Z,27.40
2018-08-22T16:56:31.852Z,27.40
2018-08-22T16:59:07.720Z,27.50
2018-08-22T17:01:36.939Z,27.50
2018-08-22T17:04:05.616Z,27.50
2018-08-22T17:06:34.061Z,27.50
2018-08-22T17:09:02.450Z,27.50
2018-08-22T17:11:31.136Z,27.40
2018-08-22T17:13:59.583Z,27.40
2018-08-22T17:16:28.028Z,27.30
2018-08-22T17:18:56.543Z,27.20
2018-08-22T17:21:25.742Z,27.20
2018-08-22T17:23:54.161Z,27.20
2018-08-22T17:26:23.295Z,27.20
2018-08-22T17:28:57.146Z,27.20
2018-08-22T17:31:26.784Z,27.10
2018-08-22T17:34:03.294Z,27.10
2018-08-22T17:36:32.916Z,27.10
2018-08-22T17:39:02.132Z,27.00
2018-08-22T17:41:30.894Z,27.00
2018-08-22T17:44:09.480Z,27.00
2018-08-22T17:46:39.302Z,26.90
2018-08-22T17:49:07.785Z,26.90
2018-08-22T17:51:55.619Z,26.90
2018-08-22T17:54:24.366Z,26.80
2018-08-22T17:57:04.214Z,26.70
2018-08-22T17:59:32.638Z,26.70
2018-08-22T18:02:01.009Z,26.70
2018-08-22T18:04:39.591Z,26.70
2018-08-22T18:07:08.286Z,26.60
2018-08-22T18:09:36.760Z,26.50
2018-08-22T18:12:05.279Z,26.50
2018-08-22T18:14:33.715Z,26.50
2018-08-22T18:17:05.797Z,26.40
2018-08-22T18:19:36.569Z,26.50
2018-08-22T18:22:05.026Z,26.30
2018-08-22T18:24:34.683Z,26.40
2018-08-22T18:27:05.471Z,26.40
2018-08-22T18:29:34.400Z,26.30
2018-08-22T18:32:02.914Z,26.20
2018-08-22T18:34:31.322Z,26.10
2018-08-22T18:36:59.748Z,26.10
2018-08-22T18:39:28.267Z,26.00
2018-08-22T18:41:56.728Z,25.90
2018-08-22T18:44:25.341Z,25.90
2018-08-22T18:46:53.891Z,25.80
2018-08-22T18:49:22.646Z,25.80
2018-08-22T18:51:51.090Z,25.70
2018-08-22T18:54:20.076Z,25.70
2018-08-22T18:56:50.317Z,25.60
2018-08-22T18:59:25.435Z,25.60
2018-08-22T19:01:53.900Z,25.50
2018-08-22T19:04:22.391Z,25.40
2018-08-22T19:06:50.998Z,25.30
2018-08-22T19:09:19.582Z,25.20
2018-08-22T19:11:48.083Z,25.20
2018-08-22T19:14:21.413Z,25.10
2018-08-22T19:16:49.834Z,25.00
2018-08-22T19:19:18.283Z,25.00
2018-08-22T19:21:46.854Z,24.90
2018-08-22T19:24:15.279Z,24.90
2018-08-22T19:26:44.276Z,24.80
2018-08-22T19:29:13.011Z,24.80
2018-08-22T19:31:47.771Z,24.70
2018-08-22T19:34:16.262Z,24.70
2018-08-22T19:36:44.751Z,24.60
2018-08-22T19:39:13.169Z,24.60
2018-08-22T19:41:41.826Z,24.60
2018-08-22T19:44:10.294Z,24.60
2018-08-22T19:46:38.689Z,24.50
2018-08-22T19:49:07.193Z,24.40
2018-08-22T19:51:35.749Z,24.40
2018-08-22T19:54:06.609Z,24.40
2018-08-22T19:56:35.170Z,24.40
2018-08-22T19:59:04.471Z,24.30
2018-08-22T20:01:34.348Z,24.20
2018-08-22T20:04:02.865Z,24.20
2018-08-22T20:06:31.299Z,24.20
2018-08-22T20:09:00.473Z,24.10
2018-08-22T20:11:31.799Z,24.10
2018-08-22T20:14:02.150Z,24.10
2018-08-22T20:16:30.628Z,24.00
2018-08-22T20:19:00.409Z,24.00
2018-08-22T20:21:36.184Z,24.10
2018-08-22T20:24:06.042Z,24.00
2018-08-22T20:26:35.111Z,24.00
2018-08-22T20:29:04.682Z,24.00
2018-08-22T20:31:34.543Z,23.90
2018-08-22T20:34:09.193Z,23.90
2018-08-22T20:36:37.729Z,23.80
2018-08-22T20:39:09.305Z,23.80
2018-08-22T20:41:38.618Z,23.80
2018-08-22T20:44:10.033Z,23.60
2018-08-22T20:46:38.663Z,23.60
2018-08-22T20:49:07.039Z,23.60
2018-08-22T20:51:35.470Z,23.60
2018-08-22T20:54:10.352Z,23.60
2018-08-22T20:56:45.215Z,23.60
2018-08-22T20:59:14.691Z,23.60
2018-08-22T21:01:44.097Z,23.50
2018-08-22T21:04:12.647Z,23.50
2018-08-22T21:06:41.096Z,23.50
2018-08-22T21:09:09.583Z,23.40
2018-08-22T21:11:39.381Z,23.40
2018-08-22T21:14:08.003Z,23.40
2018-08-22T21:16:36.891Z,23.30
2018-08-22T21:19:06.780Z,23.20
2018-08-22T21:21:35.261Z,23.30
2018-08-22T21:24:03.656Z,23.20
2018-08-22T21:26:38.175Z,23.20
2018-08-22T21:29:06.548Z,23.10
2018-08-22T21:31:35.564Z,23.10
2018-08-22T21:34:13.195Z,23.10
2018-08-22T21:36:43.481Z,23.10
2018-08-22T21:39:17.499Z,23.10
2018-08-22T21:41:46.865Z,23.00
2018-08-22T21:44:18.016Z,23.00
2018-08-22T21:46:49.840Z,22.90
2018-08-22T21:49:18.259Z,22.90
2018-08-22T21:51:46.824Z,22.90
2018-08-22T21:54:15.480Z,22.90
2018-08-22T21:56:44.031Z,22.90
2018-08-22T21:59:12.595Z,22.80
2018-08-22T22:01:47.252Z,22.80
2018-08-22T22:04:38.227Z,22.70
2018-08-22T22:07:07.740Z,22.70
2018-08-22T22:09:36.854Z,22.70
2018-08-22T22:12:09.536Z,22.60
2018-08-22T22:14:37.965Z,22.60
2018-08-22T22:17:06.580Z,22.60
2018-08-22T22:19:35.957Z,22.50
2018-08-22T22:22:04.690Z,22.50
2018-08-22T22:24:34.195Z,22.40
2018-08-22T22:27:03.503Z,22.50
2018-08-22T22:29:32.863Z,22.50
2018-08-22T22:32:01.345Z,22.40
2018-08-22T22:34:29.698Z,22.40
2018-08-22T22:36:58.248Z,22.40
2018-08-22T22:39:40.539Z,22.40
2018-08-22T22:42:14.886Z,22.30
2018-08-22T22:44:46.346Z,22.20
2018-08-22T22:47:20.152Z,22.20
2018-08-22T22:49:49.015Z,22.20
2018-08-22T22:52:30.348Z,22.20
2018-08-22T22:55:01.847Z,22.20
2018-08-22T22:57:31.279Z,22.20
2018-08-22T23:00:00.116Z,22.20
2018-08-22T23:02:28.926Z,22.10
2018-08-22T23:04:58.243Z,22.00
2018-08-22T23:07:28.594Z,22.00
2018-08-22T23:09:59.041Z,22.00
2018-08-22T23:12:47.925Z,21.90
2018-08-22T23:15:20.678Z,21.90
2018-08-22T23:17:50.119Z,21.80
2018-08-22T23:20:27.218Z,21.80
2018-08-22T23:22:56.028Z,21.80
2018-08-22T23:25:24.920Z,21.80
2018-08-22T23:27:53.370Z,21.90
2018-08-22T23:30:37.270Z,21.70
2018-08-22T23:33:06.570Z,21.70
2018-08-22T23:35:36.031Z,21.70
2018-08-22T23:38:05.653Z,21.70
2018-08-22T23:40:34.896Z,21.60
2018-08-22T23:43:03.287Z,21.50
2018-08-22T23:45:32.182Z,21.50
2018-08-22T23:48:00.572Z,21.50
2018-08-22T23:50:42.640Z,21.50
2018-08-22T23:53:11.247Z,21.50
2018-08-22T23:55:39.640Z,21.50
2018-08-22T23:58:08.060Z,21.40
